Weather at Austin Air Ads Airport [CLOSED]

Public forecast

Using degrees Fahrenheit for public forecast. Weather courtesy of forecast.io.

Closest aviation weather report (METAR) to Austin Air Ads Airport

Closest report is Terre Haute Regional Airport, Hulman Field, 14.3 nm (26.5 km) NNE. Retrieved 2020/11/23 19:53 UTC (1 hour ago):

KHUF 231953Z VRB04KT 10SM SCT034 09/01 A3032 RMK AO2 SLP269 T00890006

Closest aviation forecast (TAF) to Austin Air Ads Airport

Closest forecast is Terre Haute Regional Airport, Hulman Field, 14.3 nm (26.5 km) NNE. Retrieved 2020/11/23 18:22 UTC (3 hours ago):

TAF KHUF 231720Z 2318/2418 30005KT P6SM SCT250 FM232200 VRB03KT P6SM BKN150 FM240700 VRB03KT P6SM VCSH OVC060 FM241200 12008KT P6SM OVC080